Time;durP1;ratioP1;P1;durP2;ratioP2;P2;SDS_P1;SDS_P2;PMS_P1;PMS_P2;Temp;Humidity;BMP_temperature;BMP_pressure;BME280_temperature;BME280_humidity;BME280_pressure;Samples;Min_cycle;Max_cycle;Signal;HPM_P1;HPM_P2
2023/07/21 00:00:46;;;;;;;9.30;3.10;;;;;;;23.83;51.62;98572.15;67996;1274;1016004;-65
2023/07/21 00:04:09;;;;;;;10.80;3.10;;;;;;;23.88;51.46;98568.61;68014;1274;1017291;-63
2023/07/21 00:07:20;;;;;;;11.30;3.10;;;;;;;23.92;51.46;98569.23;67883;1274;1016383;-64
2023/07/21 00:10:24;;;;;;;7.60;3.10;;;;;;;23.91;51.46;98567.90;67979;1274;1016494;-63
2023/07/21 00:13:27;;;;;;;15.70;3.40;;;;;;;23.68;51.82;98574.73;67977;1274;1016457;-64
2023/07/21 00:16:30;;;;;;;12.80;3.20;;;;;;;23.68;51.70;98569.53;67951;1274;1016429;-63
2023/07/21 00:19:33;;;;;;;14.40;3.30;;;;;;;23.77;51.37;98571.52;68060;1274;1015951;-63
2023/07/21 00:22:36;;;;;;;12.80;3.30;;;;;;;23.72;51.76;98570.66;67978;1274;1016650;-63
2023/07/21 00:25:39;;;;;;;9.00;3.00;;;;;;;23.85;51.41;98571.34;68001;1274;1016073;-66
2023/07/21 00:28:43;;;;;;;8.80;2.90;;;;;;;23.90;51.39;98566.94;67968;1274;1016079;-63
2023/07/21 00:31:49;;;;;;;10.80;3.60;;;;;;;23.91;51.16;98562.37;68027;1274;1018005;-68
2023/07/21 00:34:51;;;;;;;12.30;3.40;;;;;;;23.67;51.64;98561.89;68007;1274;1016450;-63
2023/07/21 00:37:58;;;;;;;9.80;3.20;;;;;;;23.82;51.26;98561.83;67981;1274;1017423;-63
2023/07/21 00:41:00;;;;;;;14.10;3.50;;;;;;;23.93;50.85;98562.31;67965;1274;1016413;-64
2023/07/21 00:44:08;;;;;;;8.40;3.10;;;;;;;23.97;50.87;98559.73;68014;1274;1016445;-64
2023/07/21 00:47:11;;;;;;;11.50;3.10;;;;;;;23.97;51.03;98554.29;68023;1274;1016453;-63
2023/07/21 00:50:15;;;;;;;10.30;3.30;;;;;;;23.85;51.40;98554.13;68020;1274;1016783;-63
2023/07/21 00:53:17;;;;;;;10.80;3.30;;;;;;;23.80;51.66;98546.15;67958;1274;1016360;-63
2023/07/21 00:56:21;;;;;;;10.20;3.40;;;;;;;23.25;53.21;98544.83;67983;1274;1016209;-66
2023/07/21 00:59:24;;;;;;;8.80;3.10;;;;;;;23.45;52.60;98543.19;67985;1274;1016618;-64
2023/07/21 01:02:27;;;;;;;12.00;3.40;;;;;;;23.31;52.94;98541.98;67981;1274;1016381;-63
2023/07/21 01:05:32;;;;;;;11.20;3.40;;;;;;;23.35;52.85;98540.98;67966;1274;1016415;-63
2023/07/21 01:08:35;;;;;;;11.00;3.30;;;;;;;23.52;52.33;98540.23;67982;1274;1016397;-63
2023/07/21 01:11:38;;;;;;;11.50;3.50;;;;;;;23.64;51.81;98542.85;68010;1274;1016057;-63
2023/07/21 01:14:41;;;;;;;11.20;3.40;;;;;;;23.68;51.85;98544.91;67997;1274;1016612;-63
2023/07/21 01:17:44;;;;;;;8.50;3.30;;;;;;;23.83;51.43;98546.33;68059;1274;1016060;-64
2023/07/21 01:20:47;;;;;;;8.60;3.00;;;;;;;23.71;51.95;98548.90;67984;1274;1016585;-63
2023/07/21 01:23:50;;;;;;;13.40;3.20;;;;;;;23.63;51.97;98549.05;67996;1274;1015989;-63
2023/07/21 01:26:53;;;;;;;10.90;3.50;;;;;;;24.03;51.28;98547.19;67993;1274;1016319;-68
2023/07/21 01:29:58;;;;;;;8.90;3.20;;;;;;;24.13;51.00;98545.46;68041;1274;1018075;-63
2023/07/21 01:33:01;;;;;;;13.00;3.20;;;;;;;24.10;50.83;98545.27;67912;1274;1016441;-63
2023/07/21 01:36:05;;;;;;;11.10;3.40;;;;;;;23.82;51.37;98549.85;67967;1274;1016064;-64
2023/07/21 01:39:08;;;;;;;11.00;3.40;;;;;;;23.51;52.30;98548.36;67986;1274;1016438;-64
2023/07/21 01:42:11;;;;;;;13.20;3.30;;;;;;;23.24;53.11;98541.27;67971;1274;1016255;-63
2023/07/21 01:45:17;;;;;;;12.00;3.50;;;;;;;22.48;55.56;98543.42;67988;1274;1016122;-68
2023/07/21 01:48:21;;;;;;;11.20;3.50;;;;;;;22.52;55.66;98542.67;67977;1274;1016155;-65
2023/07/21 01:51:24;;;;;;;13.90;3.80;;;;;;;22.73;55.14;98545.36;68032;1274;1018661;-63
2023/07/21 01:54:27;;;;;;;11.60;3.40;;;;;;;22.87;54.78;98544.15;67982;1274;1016209;-65
2023/07/21 01:57:30;;;;;;;10.60;3.70;;;;;;;23.02;54.28;98542.94;68005;1274;1016262;-64
2023/07/21 02:00:34;;;;;;;10.20;3.30;;;;;;;23.10;53.95;98540.58;68009;1274;1016218;-63
2023/07/21 02:03:38;;;;;;;7.90;3.20;;;;;;;23.22;53.66;98539.30;67999;1274;1016071;-63
2023/07/21 02:06:41;;;;;;;10.40;3.10;;;;;;;23.28;53.51;98536.10;67981;1274;1015772;-63
2023/07/21 02:09:44;;;;;;;7.30;3.00;;;;;;;23.66;52.12;98531.37;68016;1275;1016480;-63
2023/07/21 02:12:48;;;;;;;10.90;3.40;;;;;;;23.17;53.37;98525.23;67982;1274;1016573;-68
2023/07/21 02:15:51;;;;;;;11.00;3.50;;;;;;;22.93;54.30;98525.45;67995;1274;1016458;-63
2023/07/21 02:18:54;;;;;;;13.80;3.50;;;;;;;23.27;53.36;98526.94;68031;1274;1016385;-64
2023/07/21 02:21:58;;;;;;;12.40;3.30;;;;;;;23.31;53.08;98522.09;67939;1274;1016296;-69
2023/07/21 02:25:04;;;;;;;9.70;3.30;;;;;;;23.14;53.60;98522.13;67943;1274;1016294;-63
2023/07/21 02:28:08;;;;;;;7.70;3.00;;;;;;;23.09;53.59;98521.05;67924;1274;1016406;-63
2023/07/21 02:31:11;;;;;;;10.30;3.30;;;;;;;23.00;53.83;98525.59;67990;1274;1016513;-64
2023/07/21 02:34:15;;;;;;;9.70;3.40;;;;;;;23.31;52.97;98531.35;68003;1274;1015797;-63
2023/07/21 02:37:18;;;;;;;11.50;3.20;;;;;;;23.33;52.55;98528.72;68021;1274;1016252;-63
2023/07/21 02:40:21;;;;;;;12.10;3.30;;;;;;;23.27;52.43;98531.38;68033;1274;1016290;-63
2023/07/21 02:43:24;;;;;;;15.10;3.90;;;;;;;22.71;53.95;98545.79;67968;1274;1016436;-63
2023/07/21 02:46:28;;;;;;;11.10;3.40;;;;;;;22.91;53.53;98544.48;67992;1274;1017026;-62
2023/07/21 02:49:31;;;;;;;9.80;3.20;;;;;;;22.85;53.57;98544.70;67991;1274;1016437;-63
2023/07/21 02:52:35;;;;;;;11.60;3.30;;;;;;;22.68;53.95;98541.48;68024;1274;1016348;-63
2023/07/21 02:55:38;;;;;;;11.90;3.40;;;;;;;22.85;53.73;98542.87;67982;1274;1016951;-63
2023/07/21 02:58:42;;;;;;;11.30;3.60;;;;;;;22.81;53.75;98543.53;68002;1274;1018887;-63
2023/07/21 03:01:54;;;;;;;7.00;3.30;;;;;;;22.72;53.95;98537.75;68000;1274;1016428;-63
2023/07/21 03:04:58;;;;;;;;;;;;;;;22.71;53.79;98542.33;68009;1274;1015668;-63
2023/07/21 03:08:00;;;;;;;9.90;3.60;;;;;;;22.81;53.77;98554.27;68003;1274;1015958;-63
2023/07/21 03:11:03;;;;;;;11.30;3.50;;;;;;;22.82;53.80;98552.17;68004;1274;1016390;-63
2023/07/21 03:14:09;;;;;;;17.00;4.20;;;;;;;23.40;52.54;98554.48;68049;1274;1016702;-65
2023/07/21 03:17:13;;;;;;;14.80;3.80;;;;;;;23.57;52.31;98555.17;67972;1274;1016397;-68
2023/07/21 03:20:17;;;;;;;12.40;3.60;;;;;;;23.11;53.35;98555.42;67940;1275;1016437;-63
2023/07/21 03:23:20;;;;;;;11.10;3.30;;;;;;;22.88;54.22;98558.81;67995;1274;1017203;-63
2023/07/21 03:26:26;;;;;;;12.20;3.40;;;;;;;22.81;54.69;98558.36;67966;1275;1016252;-65
2023/07/21 03:29:30;;;;;;;12.60;3.60;;;;;;;22.77;54.95;98554.56;67965;1274;1016477;-63
2023/07/21 03:32:34;;;;;;;13.60;3.90;;;;;;;22.78;54.97;98553.02;67992;1274;1016505;-69
2023/07/21 03:35:38;;;;;;;14.00;3.80;;;;;;;22.80;54.94;98556.55;68007;1274;1016169;-69
2023/07/21 03:38:41;;;;;;;15.30;4.60;;;;;;;23.04;54.33;98548.49;68027;1274;1018866;-64
2023/07/21 03:41:44;;;;;;;;;;;;;;;23.33;53.67;98546.60;68003;1274;1016432;-63
2023/07/21 03:44:48;;;;;;;14.30;3.90;;;;;;;22.85;55.24;98549.02;67983;1273;1016257;-62
2023/07/21 03:47:52;;;;;;;11.40;3.70;;;;;;;23.00;54.84;98554.33;68038;1275;1016142;-61
2023/07/21 03:50:58;;;;;;;12.90;3.90;;;;;;;23.28;54.26;98555.94;68013;1274;1015741;-62
2023/07/21 03:54:02;;;;;;;19.50;4.00;;;;;;;23.02;55.11;98560.03;68032;1274;1016397;-62
2023/07/21 03:57:06;;;;;;;15.80;3.70;;;;;;;23.23;54.83;98557.17;68030;1273;1016391;-62
2023/07/21 04:00:10;;;;;;;17.30;4.10;;;;;;;23.20;55.48;98557.55;67990;1276;1016044;-62
2023/07/21 04:03:14;;;;;;;17.00;4.40;;;;;;;23.53;54.74;98559.93;68040;1275;1017103;-66
2023/07/21 04:06:20;;;;;;;26.40;4.80;;;;;;;23.72;54.32;98560.73;67986;1272;1016298;-62
2023/07/21 04:09:24;;;;;;;20.10;4.90;;;;;;;23.43;55.32;98564.55;68020;1272;1016069;-62
2023/07/21 04:12:28;;;;;;;15.30;5.10;;;;;;;23.46;55.31;98571.08;67966;1274;1016272;-73
2023/07/21 04:15:31;;;;;;;16.00;4.20;;;;;;;23.40;56.47;98570.80;68027;1274;1017928;-67
2023/07/21 04:18:36;;;;;;;18.60;4.60;;;;;;;23.68;56.07;98568.46;68029;1274;1016386;-68
2023/07/21 04:21:42;;;;;;;22.90;5.80;;;;;;;23.84;55.96;98565.89;68018;1275;1016368;-67
2023/07/21 04:24:46;;;;;;;25.10;5.80;;;;;;;24.23;54.98;98567.48;67983;1274;1016399;-67
2023/07/21 04:27:50;;;;;;;25.20;5.60;;;;;;;24.44;54.74;98570.05;67974;1272;1016885;-67
2023/07/21 04:30:56;;;;;;;26.50;6.50;;;;;;;24.42;54.98;98565.55;68005;1267;1016470;-67
2023/07/21 04:33:59;;;;;;;25.20;6.10;;;;;;;25.05;53.23;98567.92;67974;1267;1015821;-69
2023/07/21 04:37:03;;;;;;;25.00;6.80;;;;;;;24.77;54.58;98566.02;67982;1275;1018504;-67
2023/07/21 04:40:07;;;;;;;21.60;6.70;;;;;;;25.03;54.45;98567.08;67991;1269;1016429;-67
2023/07/21 04:43:11;;;;;;;22.60;8.20;;;;;;;25.24;53.69;98566.23;68048;1274;1016365;-66
2023/07/21 04:46:14;;;;;;;24.60;7.70;;;;;;;25.11;53.84;98568.59;67972;1272;1016513;-66
2023/07/21 04:49:22;;;;;;;21.80;6.40;;;;;;;25.11;53.74;98565.34;67996;1275;1016414;-67
2023/07/21 04:52:25;;;;;;;24.30;7.60;;;;;;;25.58;53.19;98562.64;67990;1270;1016424;-66
2023/07/21 04:55:28;;;;;;;22.70;7.10;;;;;;;26.05;51.83;98560.71;67985;1272;1016386;-66
2023/07/21 04:58:32;;;;;;;25.00;7.10;;;;;;;25.60;52.90;98557.46;68011;1269;1016398;-64
2023/07/21 05:01:36;;;;;;;18.80;6.00;;;;;;;25.85;52.38;98558.60;67976;1274;1016945;-69
2023/07/21 05:04:39;;;;;;;22.30;6.30;;;;;;;25.97;51.62;98554.45;68017;1276;1016306;-66
2023/07/21 05:07:42;;;;;;;20.60;6.10;;;;;;;26.33;51.58;98554.59;67978;1275;1016419;-66
2023/07/21 05:10:45;;;;;;;20.60;6.30;;;;;;;26.98;49.98;98553.93;68003;1276;1016130;-66
2023/07/21 05:13:51;;;;;;;20.40;6.60;;;;;;;27.05;49.15;98550.35;67990;1276;1016570;-66
2023/07/21 05:16:54;;;;;;;20.80;6.30;;;;;;;26.21;50.75;98553.16;68019;1275;1016117;-66
2023/07/21 05:19:58;;;;;;;21.90;6.90;;;;;;;26.43;49.09;98555.70;67989;1275;1016173;-66
2023/07/21 05:23:01;;;;;;;19.80;5.90;;;;;;;26.55;48.46;98559.05;67988;1260;1017975;-66
2023/07/21 05:26:05;;;;;;;20.90;6.80;;;;;;;26.53;48.87;98560.40;67954;1275;1016550;-66
2023/07/21 05:29:10;;;;;;;19.00;6.40;;;;;;;26.46;48.56;98563.90;67997;1275;1016199;-66
2023/07/21 05:32:15;;;;;;;19.10;6.10;;;;;;;26.28;48.04;98564.64;67979;1275;1016493;-66
2023/07/21 05:35:19;;;;;;;18.90;6.20;;;;;;;26.46;48.33;98568.87;67996;1276;1016441;-66
2023/07/21 05:38:23;;;;;;;21.60;6.10;;;;;;;26.34;47.90;98572.77;68010;1275;1016391;-66
2023/07/21 05:41:27;;;;;;;19.70;6.20;;;;;;;26.29;48.22;98570.22;68013;1275;1016177;-66
2023/07/21 05:44:30;;;;;;;22.00;7.00;;;;;;;26.22;48.72;98571.11;67940;1275;1015882;-66
2023/07/21 05:47:33;;;;;;;18.70;6.80;;;;;;;26.29;48.06;98570.80;68024;1275;1016093;-66
2023/07/21 05:50:36;;;;;;;20.40;6.70;;;;;;;26.19;48.23;98575.98;67926;1275;1016156;-66
2023/07/21 05:53:40;;;;;;;21.90;6.20;;;;;;;26.39;48.44;98574.48;67960;1275;1016166;-66
2023/07/21 05:56:43;;;;;;;19.90;6.40;;;;;;;25.99;49.28;98564.54;68034;1275;1016344;-66
2023/07/21 05:59:46;;;;;;;21.10;6.80;;;;;;;26.17;49.68;98568.30;68043;1275;1016479;-66
2023/07/21 06:02:50;;;;;;;21.80;6.10;;;;;;;26.17;49.49;98572.33;68045;1275;1016949;-66
2023/07/21 06:05:53;;;;;;;22.60;6.50;;;;;;;26.27;48.48;98571.17;68039;1275;1016396;-66
2023/07/21 06:08:56;;;;;;;21.00;6.80;;;;;;;26.59;47.99;98570.27;68000;1275;1016453;-66
2023/07/21 06:11:59;;;;;;;19.20;5.90;;;;;;;26.83;48.00;98569.39;68021;1275;1016238;-66
2023/07/21 06:15:02;;;;;;;15.80;5.70;;;;;;;27.15;47.22;98568.88;68012;1275;1016487;-66
2023/07/21 06:18:05;;;;;;;18.50;5.50;;;;;;;27.32;47.21;98571.97;67903;1275;1016042;-66
2023/07/21 06:21:07;;;;;;;19.80;5.90;;;;;;;28.09;46.13;98571.06;68071;1275;1016309;-66
2023/07/21 06:24:11;;;;;;;21.60;5.50;;;;;;;28.09;46.65;98569.23;67989;1275;1016494;-66
2023/07/21 06:27:14;;;;;;;20.00;5.80;;;;;;;28.17;46.77;98571.09;67992;1275;1016458;-66
2023/07/21 06:30:17;;;;;;;19.80;5.80;;;;;;;28.46;46.11;98569.73;68031;1275;1018908;-66
2023/07/21 06:33:20;;;;;;;20.50;5.50;;;;;;;28.91;44.88;98574.50;67877;1275;1016280;-66
2023/07/21 06:36:23;;;;;;;16.80;5.10;;;;;;;28.74;44.96;98579.47;65456;1276;6357162;-66
2023/07/21 06:39:25;;;;;;;;;;;;;;;28.38;45.18;98583.59;67950;1276;1016383;-66
2023/07/21 06:42:29;;;;;;;18.90;5.10;;;;;;;28.59;45.04;98581.69;68010;1275;1016427;-66
2023/07/21 06:45:33;;;;;;;20.50;5.00;;;;;;;28.99;44.39;98581.84;68032;1276;1016406;-66
2023/07/21 06:48:35;;;;;;;18.90;5.50;;;;;;;29.21;44.99;98578.73;68046;1275;1016897;-66
2023/07/21 06:51:38;;;;;;;17.40;4.50;;;;;;;29.13;44.17;98580.50;67909;1276;1016249;-66
2023/07/21 06:54:42;;;;;;;16.00;4.90;;;;;;;29.05;44.26;98582.71;68049;1275;1016130;-66
2023/07/21 06:57:45;;;;;;;16.80;4.90;;;;;;;29.39;43.16;98584.55;67907;1276;1016107;-66
2023/07/21 07:00:47;;;;;;;13.70;4.70;;;;;;;29.31;42.78;98585.64;67981;1276;1016982;-66
2023/07/21 07:03:50;;;;;;;16.30;4.50;;;;;;;28.95;43.94;98582.00;67996;1275;1016144;-66
2023/07/21 07:06:55;;;;;;;14.40;4.10;;;;;;;29.49;43.04;98580.36;68000;1276;1016444;-66
2023/07/21 07:09:58;;;;;;;13.70;4.10;;;;;;;29.86;42.11;98582.23;68020;1276;1016500;-66
2023/07/21 07:13:01;;;;;;;14.50;4.50;;;;;;;30.08;41.88;98585.39;68000;1276;1017302;-66
2023/07/21 07:16:04;;;;;;;18.20;4.30;;;;;;;29.63;42.22;98587.93;68018;1276;1016393;-66
2023/07/21 07:19:07;;;;;;;17.90;4.50;;;;;;;29.43;41.62;98592.63;67984;1276;1016384;-66
2023/07/21 07:22:10;;;;;;;16.80;4.70;;;;;;;29.18;42.14;98592.39;68049;1276;1017887;-66
2023/07/21 07:25:13;;;;;;;14.40;4.30;;;;;;;29.66;41.56;98588.56;68017;1276;1016483;-66
2023/07/21 07:28:16;;;;;;;17.20;4.90;;;;;;;29.86;40.99;98592.54;68039;1275;1018589;-66
2023/07/21 07:31:19;;;;;;;18.00;5.30;;;;;;;29.83;41.34;98590.71;68014;1275;1016409;-66
2023/07/21 07:34:22;;;;;;;18.60;5.00;;;;;;;30.14;41.04;98595.30;68003;1276;1016178;-66
2023/07/21 07:37:25;;;;;;;19.00;4.90;;;;;;;29.91;41.22;98593.38;68020;1275;1016175;-66
2023/07/21 07:40:28;;;;;;;19.30;4.70;;;;;;;29.71;41.42;98596.73;68055;1276;1015802;-66
2023/07/21 07:43:32;;;;;;;17.10;4.80;;;;;;;30.55;40.70;98596.73;67992;1276;1020049;-66
2023/07/21 07:46:35;;;;;;;15.10;4.30;;;;;;;30.82;41.12;98594.84;67959;1276;1016458;-66
2023/07/21 07:49:37;;;;;;;15.60;4.60;;;;;;;31.68;40.51;98587.94;67983;1276;1016452;-66
2023/07/21 07:52:40;;;;;;;14.50;4.30;;;;;;;32.14;40.30;98589.05;67997;1276;1016409;-66
2023/07/21 07:55:43;;;;;;;16.50;4.40;;;;;;;32.05;38.99;98589.48;67970;1275;1016317;-66
2023/07/21 07:58:46;;;;;;;14.30;4.20;;;;;;;31.93;39.27;98589.66;68026;1275;1016628;-66
2023/07/21 08:01:49;;;;;;;13.40;4.40;;;;;;;32.42;39.13;98588.00;67983;1275;1016249;-66
2023/07/21 08:04:52;;;;;;;14.70;4.30;;;;;;;32.49;38.80;98587.80;68003;1275;1016272;-66
2023/07/21 08:07:55;;;;;;;12.50;4.40;;;;;;;32.41;39.59;98587.18;68055;1275;1016449;-66
2023/07/21 08:10:58;;;;;;;15.70;4.50;;;;;;;32.50;37.92;98589.96;68046;1255;1016423;-66
2023/07/21 08:14:01;;;;;;;15.30;4.30;;;;;;;32.74;38.73;98587.59;68052;1275;1016473;-66
2023/07/21 08:17:03;;;;;;;14.40;4.70;;;;;;;32.71;37.22;98583.84;68012;1275;1016221;-66
2023/07/21 08:20:06;;;;;;;12.60;4.10;;;;;;;32.04;36.53;98591.73;68003;1275;1015966;-66
2023/07/21 08:23:09;;;;;;;16.30;5.50;;;;;;;32.33;37.16;98591.01;68060;1276;1019537;-66
2023/07/21 08:26:12;;;;;;;14.60;4.70;;;;;;;32.17;36.81;98590.05;68025;1275;1016575;-66
2023/07/21 08:29:15;;;;;;;14.60;4.70;;;;;;;32.08;37.19;98584.61;68035;1275;1016469;-66
2023/07/21 08:32:17;;;;;;;14.70;4.30;;;;;;;32.33;37.51;98585.98;67978;1275;1016431;-66
2023/07/21 08:35:20;;;;;;;14.40;4.20;;;;;;;32.50;37.34;98585.19;68035;1276;1016384;-66
2023/07/21 08:38:23;;;;;;;10.20;3.70;;;;;;;32.19;35.90;98585.13;67987;1275;1015595;-66
2023/07/21 08:41:27;;;;;;;14.10;4.00;;;;;;;31.77;35.92;98588.73;68050;1275;1017198;-66
2023/07/21 08:44:29;;;;;;;12.70;3.80;;;;;;;31.52;36.27;98588.95;68028;1275;1016854;-66
2023/07/21 08:47:32;;;;;;;11.90;4.00;;;;;;;31.77;36.49;98586.64;68038;1275;1016527;-66
2023/07/21 08:50:35;;;;;;;13.40;4.00;;;;;;;32.55;35.52;98583.02;68021;1275;1016642;-66
2023/07/21 08:53:38;;;;;;;14.30;4.50;;;;;;;32.46;35.55;98579.45;68053;1275;1020109;-66
2023/07/21 08:56:41;;;;;;;15.40;4.40;;;;;;;31.68;36.32;98579.05;67997;1275;1016156;-65
2023/07/21 08:59:44;;;;;;;14.40;4.30;;;;;;;31.68;35.85;98577.11;67998;1275;1016380;-66
2023/07/21 09:02:47;;;;;;;13.40;4.00;;;;;;;31.40;36.32;98575.11;68019;1275;1015828;-66
2023/07/21 09:05:51;;;;;;;13.10;3.80;;;;;;;31.79;36.59;98574.95;68006;1254;1016187;-67
2023/07/21 09:08:54;;;;;;;12.20;3.80;;;;;;;32.40;35.07;98573.85;68000;1275;1015855;-66
2023/07/21 09:11:57;;;;;;;13.70;3.90;;;;;;;32.55;34.81;98575.35;68040;1275;1016169;-66
2023/07/21 09:15:00;;;;;;;9.90;3.60;;;;;;;32.38;35.71;98571.80;67978;1275;1016421;-66
2023/07/21 09:18:03;;;;;;;11.40;4.00;;;;;;;33.31;35.35;98566.81;68023;1275;1016354;-66
2023/07/21 09:21:06;;;;;;;9.50;3.20;;;;;;;33.74;33.81;98566.42;68029;1275;1019601;-66
2023/07/21 09:24:10;;;;;;;11.70;3.50;;;;;;;33.36;35.27;98567.04;68034;1275;1016528;-65
2023/07/21 09:27:13;;;;;;;13.40;4.50;;;;;;;33.75;34.79;98568.77;67994;1275;1016365;-66
2023/07/21 09:30:16;;;;;;;14.20;4.00;;;;;;;34.15;34.55;98568.10;68046;1275;1016367;-66
2023/07/21 09:33:19;;;;;;;12.90;3.70;;;;;;;35.06;33.31;98566.91;68047;1275;1016802;-66
2023/07/21 09:36:23;;;;;;;10.70;3.60;;;;;;;35.44;32.75;98567.66;68035;1275;1016484;-66
2023/07/21 09:39:27;;;;;;;10.10;3.50;;;;;;;35.60;32.61;98562.30;68032;1275;1016459;-65
2023/07/21 09:42:30;;;;;;;11.30;3.70;;;;;;;35.57;32.06;98555.85;67995;1275;1016520;-66
2023/07/21 09:45:33;;;;;;;10.90;3.50;;;;;;;35.38;32.35;98554.60;68027;1275;1016260;-65
2023/07/21 09:48:36;;;;;;;14.60;4.20;;;;;;;35.60;32.24;98558.05;68007;1275;1016404;-66
2023/07/21 09:51:39;;;;;;;17.40;5.10;;;;;;;35.55;32.62;98552.30;67997;1252;1016384;-66
2023/07/21 09:54:44;;;;;;;16.50;5.00;;;;;;;36.10;32.09;98552.02;68029;1275;1016431;-65
2023/07/21 09:57:46;;;;;;;20.80;6.90;;;;;;;36.23;32.17;98558.09;68005;1275;1016197;-65
2023/07/21 10:00:49;;;;;;;21.30;6.60;;;;;;;35.94;32.27;98564.31;67924;1275;1016470;-65
2023/07/21 10:03:52;;;;;;;20.40;5.60;;;;;;;36.44;31.50;98567.97;67992;1275;1016483;-65
2023/07/21 10:06:58;;;;;;;13.10;4.30;;;;;;;36.11;30.63;98569.11;67968;1275;1016413;-65
2023/07/21 10:10:01;;;;;;;13.50;4.20;;;;;;;35.28;30.93;98575.84;68007;1275;1016044;-65
2023/07/21 10:13:05;;;;;;;17.70;5.70;;;;;;;35.14;31.96;98574.35;68016;1275;1016245;-66
2023/07/21 10:16:08;;;;;;;18.20;4.80;;;;;;;35.03;31.48;98568.74;68045;1275;1016808;-65
2023/07/21 10:19:12;;;;;;;15.00;4.10;;;;;;;34.51;31.14;98573.44;68001;1275;1016381;-66
2023/07/21 10:22:15;;;;;;;9.60;3.70;;;;;;;33.77;31.32;98572.83;67960;1275;1016415;-66
2023/07/21 10:25:18;;;;;;;12.00;4.00;;;;;;;33.96;31.51;98572.98;68026;1275;1016660;-66
2023/07/21 10:28:21;;;;;;;13.30;3.60;;;;;;;33.96;32.13;98572.60;67982;1275;1016367;-66
2023/07/21 10:31:28;;;;;;;10.50;3.50;;;;;;;34.40;32.24;98575.17;68053;1275;1016378;-66
2023/07/21 10:34:31;;;;;;;11.60;3.70;;;;;;;34.48;33.03;98577.53;67998;1275;1016172;-66
2023/07/21 10:37:34;;;;;;;12.60;3.90;;;;;;;35.07;32.56;98572.92;68035;1275;1016800;-66
2023/07/21 10:40:37;;;;;;;10.40;3.80;;;;;;;34.81;32.66;98571.12;68013;1275;1016445;-65
2023/07/21 10:43:40;;;;;;;9.10;3.70;;;;;;;34.29;32.73;98572.56;67967;1275;1016235;-65
2023/07/21 10:46:44;;;;;;;9.70;3.40;;;;;;;33.49;32.86;98577.39;68062;1275;1016497;-65
2023/07/21 10:49:47;;;;;;;13.30;3.80;;;;;;;32.73;33.17;98571.92;68051;1275;1016482;-66
2023/07/21 10:52:51;;;;;;;10.50;3.90;;;;;;;32.10;34.38;98570.34;67980;1275;1016128;-66
2023/07/21 10:55:53;;;;;;;14.20;4.00;;;;;;;32.07;34.46;98568.04;67994;1275;1016500;-66
2023/07/21 10:58:57;;;;;;;12.30;4.00;;;;;;;31.76;34.76;98564.56;68010;1275;1015919;-66
2023/07/21 11:02:00;;;;;;;14.80;4.10;;;;;;;31.50;35.59;98567.39;68036;1275;1016693;-66
2023/07/21 11:05:04;;;;;;;10.60;3.60;;;;;;;31.29;35.71;98568.21;67998;1275;1016494;-66
2023/07/21 11:08:07;;;;;;;14.50;4.10;;;;;;;31.02;35.78;98571.60;68007;1275;1016290;-66
2023/07/21 11:11:11;;;;;;;10.10;3.70;;;;;;;31.12;36.22;98568.66;68038;1276;1016783;-66
2023/07/21 11:14:13;;;;;;;9.20;3.20;;;;;;;31.36;35.69;98565.38;67987;1275;1016374;-66
2023/07/21 11:17:17;;;;;;;8.30;3.40;;;;;;;31.31;35.93;98561.98;68036;1275;1016289;-66
2023/07/21 11:20:19;;;;;;;9.60;3.30;;;;;;;30.94;36.20;98565.39;68026;1275;1016615;-66
2023/07/21 11:23:22;;;;;;;8.90;3.30;;;;;;;30.55;35.79;98563.72;68012;1275;1016449;-66
2023/07/21 11:26:26;;;;;;;10.80;3.40;;;;;;;30.09;36.40;98555.89;67976;1275;1016279;-66
2023/07/21 11:29:29;;;;;;;10.00;3.50;;;;;;;30.27;36.29;98556.67;68020;1275;1016523;-66
2023/07/21 11:32:34;;;;;;;9.50;3.30;;;;;;;30.35;36.70;98554.14;68025;1275;1016322;-66
2023/07/21 11:35:38;;;;;;;13.70;3.50;;;;;;;30.74;36.94;98551.33;67993;1275;1016394;-66
2023/07/21 11:38:41;;;;;;;9.10;3.30;;;;;;;31.14;36.11;98541.47;68020;1275;1016382;-66
2023/07/21 11:41:45;;;;;;;9.50;3.30;;;;;;;31.62;35.86;98541.41;68029;1275;1016432;-66
2023/07/21 11:44:49;;;;;;;9.60;3.20;;;;;;;32.20;34.92;98535.48;68018;1275;1016244;-66
2023/07/21 11:47:52;;;;;;;7.30;3.10;;;;;;;32.44;33.33;98527.26;67984;1275;1016825;-66
2023/07/21 11:50:55;;;;;;;9.70;3.30;;;;;;;33.46;33.25;98523.73;68022;1275;1016284;-66
2023/07/21 11:53:59;;;;;;;9.50;3.10;;;;;;;34.14;32.04;98520.86;67982;1275;1016344;-66
2023/07/21 11:57:03;;;;;;;10.80;3.50;;;;;;;34.69;31.77;98517.23;68037;1275;1016397;-66
2023/07/21 12:00:11;;;;;;;8.70;3.20;;;;;;;35.32;32.42;98507.99;67982;1275;1016338;-66
2023/07/21 12:03:15;;;;;;;8.50;3.50;;;;;;;35.69;31.14;98502.95;67965;1275;1016464;-65
2023/07/21 12:06:19;;;;;;;10.60;3.00;;;;;;;35.72;32.24;98503.84;67985;1275;1016437;-66
2023/07/21 12:09:21;;;;;;;7.30;3.00;;;;;;;35.88;30.66;98503.77;68051;1275;1018944;-65
2023/07/21 12:12:25;;;;;;;6.80;2.50;;;;;;;35.28;29.19;98502.00;67906;1275;1016528;-65
2023/07/21 12:15:29;;;;;;;7.90;2.70;;;;;;;35.02;29.79;98497.86;68021;1275;1016706;-65
2023/07/21 12:18:33;;;;;;;5.60;2.40;;;;;;;34.96;29.35;98494.27;67902;1275;1016337;-66
2023/07/21 12:21:35;;;;;;;9.90;2.60;;;;;;;34.93;29.05;98492.29;68017;1275;1016282;-66
2023/07/21 12:24:38;;;;;;;8.40;2.80;;;;;;;35.46;29.37;98485.94;68056;1275;1016364;-66
2023/07/21 12:27:48;;;;;;;7.70;2.50;;;;;;;36.16;29.84;98482.23;68006;1275;1016330;-66
2023/07/21 12:30:58;;;;;;;5.70;2.40;;;;;;;36.09;29.00;98483.38;68020;1275;1016234;-65
2023/07/21 12:34:02;;;;;;;6.10;2.30;;;;;;;36.00;27.61;98483.46;68006;1275;1016383;-65
2023/07/21 12:37:05;;;;;;;6.50;2.60;;;;;;;36.04;27.01;98483.09;67984;1275;1016433;-65
2023/07/21 12:40:11;;;;;;;6.30;2.40;;;;;;;35.83;27.89;98482.33;68035;1275;1016739;-65
2023/07/21 12:43:15;;;;;;;6.30;2.10;;;;;;;35.32;28.05;98481.86;68014;1275;1016419;-66
2023/07/21 12:46:19;;;;;;;6.30;2.50;;;;;;;35.58;27.71;98480.71;68037;1275;1016160;-65
2023/07/21 12:49:22;;;;;;;9.10;2.90;;;;;;;35.48;27.18;98479.63;67993;1275;1016262;-66
2023/07/21 12:52:32;;;;;;;6.00;2.30;;;;;;;35.54;27.24;98479.98;68030;1275;1016404;-65
2023/07/21 12:55:35;;;;;;;5.90;2.80;;;;;;;36.00;27.03;98478.60;68053;1275;1016298;-66
2023/07/21 12:58:39;;;;;;;10.70;2.70;;;;;;;35.76;26.77;98479.37;67987;1275;1016278;-65
2023/07/21 13:01:42;;;;;;;7.30;2.80;;;;;;;35.68;27.54;98474.15;68053;1275;1016483;-66
2023/07/21 13:04:46;;;;;;;7.70;2.70;;;;;;;35.64;27.39;98480.73;68063;1275;1016192;-65
2023/07/21 13:07:49;;;;;;;10.00;2.80;;;;;;;35.91;26.91;98480.65;67985;1275;1016246;-66
2023/07/21 13:10:52;;;;;;;6.50;2.60;;;;;;;36.01;27.98;98484.39;67996;1275;1016221;-65
2023/07/21 13:13:56;;;;;;;6.30;2.60;;;;;;;35.96;28.17;98488.04;68057;1275;1016365;-66
2023/07/21 13:16:58;;;;;;;10.10;2.80;;;;;;;36.12;29.12;98479.34;68045;1275;1016246;-66
2023/07/21 13:20:03;;;;;;;4.90;2.20;;;;;;;36.53;27.22;98471.89;67933;1275;1016541;-66
2023/07/21 13:23:06;;;;;;;6.50;2.10;;;;;;;36.69;27.04;98465.61;68035;1275;1016081;-66
2023/07/21 13:26:09;;;;;;;5.40;2.30;;;;;;;36.85;27.68;98460.47;68001;1275;1016462;-66
2023/07/21 13:29:12;;;;;;;7.60;2.00;;;;;;;37.36;26.60;98464.06;68015;1275;1015758;-66
2023/07/21 13:32:16;;;;;;;4.50;2.20;;;;;;;37.65;24.83;98466.81;67960;1275;1016397;-66
2023/07/21 13:35:19;;;;;;;4.70;2.00;;;;;;;37.50;24.93;98472.44;68020;1275;1016432;-65
2023/07/21 13:38:21;;;;;;;6.60;2.10;;;;;;;37.66;25.32;98477.48;68050;1275;1016043;-66
2023/07/21 13:41:32;;;;;;;7.30;2.30;;;;;;;37.55;25.80;98481.61;67983;1275;1016534;-65
2023/07/21 13:44:35;;;;;;;6.00;2.30;;;;;;;37.09;26.09;98484.50;68024;1275;1016467;-66
2023/07/21 13:47:39;;;;;;;4.90;2.10;;;;;;;36.46;26.96;98479.31;68025;1275;1016384;-66
2023/07/21 13:50:49;;;;;;;4.80;2.20;;;;;;;36.26;27.60;98468.94;68008;1275;1016435;-66
2023/07/21 13:53:51;;;;;;;8.50;2.50;;;;;;;36.45;27.36;98467.95;67931;1275;1016406;-66
2023/07/21 13:56:54;;;;;;;6.90;2.40;;;;;;;36.35;27.27;98468.98;68023;1275;1016754;-66